Terminal Aerodrome Forecast
Issued by NWS St Louis, MO

Home | Current Version | Previous Version | Text Only | Print | Product List | Glossary On
Versions: 1 2 3 4 5 6 7 8 9 10 11 12 13 14 15 16 17 18 19 20 21 22 23 24 25 26
000
FTUS43 KLSX 041538 AAB
TAFSTL
TAF AMD
KSTL 041538Z 0416/0518 12006KT 3SM -RA BR OVC007
      TEMPO 0416/0418 1SM -RA BR
     FM042000 25004KT P6SM OVC015
     FM050200 28005KT P6SM SKC
     FM051000 VRB03KT 4SM BR SCT250
     FM051500 00000KT P6SM SCT250=

USA.gov is the U.S. government's official web portal to all federal, state and local government web resources and services.